sensor_id;sensor_type;location;lat;lon;timestamp;P1;durP1;ratioP1;P2;durP2;ratioP2
3369;SDS011;42042;51.948;7.628;2023-01-23T00:01:07;31.40;;;17.88;;
3369;SDS011;42042;51.948;7.628;2023-01-23T00:03:34;29.48;;;17.85;;
3369;SDS011;42042;51.948;7.628;2023-01-23T00:06:04;31.75;;;20.38;;
3369;SDS011;42042;51.948;7.628;2023-01-23T00:08:32;39.10;;;19.27;;
3369;SDS011;42042;51.948;7.628;2023-01-23T00:11:03;32.92;;;18.80;;
3369;SDS011;42042;51.948;7.628;2023-01-23T00:13:30;32.03;;;18.92;;
3369;SDS011;42042;51.948;7.628;2023-01-23T00:15:58;33.58;;;20.00;;
3369;SDS011;42042;51.948;7.628;2023-01-23T00:18:25;28.63;;;17.80;;
3369;SDS011;42042;51.948;7.628;2023-01-23T00:20:52;25.73;;;17.15;;
3369;SDS011;42042;51.948;7.628;2023-01-23T00:23:21;30.73;;;18.92;;
3369;SDS011;42042;51.948;7.628;2023-01-23T00:25:48;29.42;;;18.60;;
3369;SDS011;42042;51.948;7.628;2023-01-23T00:28:15;29.35;;;18.23;;
3369;SDS011;42042;51.948;7.628;2023-01-23T00:30:42;33.25;;;19.15;;
3369;SDS011;42042;51.948;7.628;2023-01-23T00:33:09;32.75;;;17.60;;
3369;SDS011;42042;51.948;7.628;2023-01-23T00:35:36;27.05;;;17.35;;
3369;SDS011;42042;51.948;7.628;2023-01-23T00:38:03;27.33;;;17.83;;
3369;SDS011;42042;51.948;7.628;2023-01-23T00:40:32;29.60;;;18.98;;
3369;SDS011;42042;51.948;7.628;2023-01-23T00:42:59;29.30;;;17.90;;
3369;SDS011;42042;51.948;7.628;2023-01-23T00:45:27;28.20;;;18.15;;
3369;SDS011;42042;51.948;7.628;2023-01-23T00:47:54;30.60;;;17.48;;
3369;SDS011;42042;51.948;7.628;2023-01-23T00:50:21;30.25;;;17.77;;
3369;SDS011;42042;51.948;7.628;2023-01-23T00:52:48;27.30;;;18.08;;
3369;SDS011;42042;51.948;7.628;2023-01-23T00:55:15;30.20;;;18.05;;
3369;SDS011;42042;51.948;7.628;2023-01-23T00:57:44;33.08;;;19.88;;
3369;SDS011;42042;51.948;7.628;2023-01-23T01:00:12;36.22;;;19.35;;
3369;SDS011;42042;51.948;7.628;2023-01-23T01:02:39;28.92;;;19.25;;
3369;SDS011;42042;51.948;7.628;2023-01-23T01:05:06;33.53;;;18.05;;
3369;SDS011;42042;51.948;7.628;2023-01-23T01:07:34;31.77;;;18.67;;
3369;SDS011;42042;51.948;7.628;2023-01-23T01:10:01;33.00;;;19.80;;
3369;SDS011;42042;51.948;7.628;2023-01-23T01:12:28;32.58;;;19.98;;
3369;SDS011;42042;51.948;7.628;2023-01-23T01:14:57;30.38;;;18.00;;
3369;SDS011;42042;51.948;7.628;2023-01-23T01:17:24;32.03;;;17.63;;
3369;SDS011;42042;51.948;7.628;2023-01-23T01:19:51;32.28;;;18.42;;
3369;SDS011;42042;51.948;7.628;2023-01-23T01:22:18;30.27;;;18.13;;
3369;SDS011;42042;51.948;7.628;2023-01-23T01:24:46;34.53;;;17.52;;
3369;SDS011;42042;51.948;7.628;2023-01-23T01:27:13;25.13;;;17.10;;
3369;SDS011;42042;51.948;7.628;2023-01-23T01:29:40;30.08;;;18.40;;
3369;SDS011;42042;51.948;7.628;2023-01-23T01:32:08;31.55;;;17.25;;
3369;SDS011;42042;51.948;7.628;2023-01-23T01:34:36;31.85;;;18.80;;
3369;SDS011;42042;51.948;7.628;2023-01-23T01:37:03;34.90;;;20.92;;
3369;SDS011;42042;51.948;7.628;2023-01-23T01:39:30;29.05;;;17.90;;
3369;SDS011;42042;51.948;7.628;2023-01-23T01:41:58;33.92;;;19.30;;
3369;SDS011;42042;51.948;7.628;2023-01-23T01:44:25;32.78;;;20.40;;
3369;SDS011;42042;51.948;7.628;2023-01-23T01:46:52;27.25;;;19.25;;
3369;SDS011;42042;51.948;7.628;2023-01-23T01:49:21;31.48;;;19.02;;
3369;SDS011;42042;51.948;7.628;2023-01-23T01:51:49;28.65;;;17.15;;
3369;SDS011;42042;51.948;7.628;2023-01-23T01:54:20;28.65;;;18.35;;
3369;SDS011;42042;51.948;7.628;2023-01-23T01:56:48;29.15;;;18.40;;
3369;SDS011;42042;51.948;7.628;2023-01-23T01:59:17;26.85;;;17.42;;
3369;SDS011;42042;51.948;7.628;2023-01-23T02:01:46;29.67;;;18.63;;
3369;SDS011;42042;51.948;7.628;2023-01-23T02:04:14;34.72;;;17.60;;
3369;SDS011;42042;51.948;7.628;2023-01-23T02:06:43;26.42;;;17.73;;
3369;SDS011;42042;51.948;7.628;2023-01-23T02:09:12;34.10;;;17.75;;
3369;SDS011;42042;51.948;7.628;2023-01-23T02:11:40;30.10;;;18.88;;
3369;SDS011;42042;51.948;7.628;2023-01-23T02:14:08;31.70;;;18.85;;
3369;SDS011;42042;51.948;7.628;2023-01-23T02:16:35;29.35;;;17.85;;
3369;SDS011;42042;51.948;7.628;2023-01-23T02:19:10;26.95;;;17.00;;
3369;SDS011;42042;51.948;7.628;2023-01-23T02:21:38;30.85;;;18.05;;
3369;SDS011;42042;51.948;7.628;2023-01-23T02:24:11;31.33;;;17.65;;
3369;SDS011;42042;51.948;7.628;2023-01-23T02:26:42;29.35;;;18.42;;
3369;SDS011;42042;51.948;7.628;2023-01-23T02:29:10;33.17;;;17.88;;
3369;SDS011;42042;51.948;7.628;2023-01-23T02:31:37;26.73;;;17.77;;
3369;SDS011;42042;51.948;7.628;2023-01-23T02:34:08;29.58;;;17.50;;
3369;SDS011;42042;51.948;7.628;2023-01-23T02:36:36;28.52;;;17.38;;
3369;SDS011;42042;51.948;7.628;2023-01-23T02:39:04;29.27;;;17.02;;
3369;SDS011;42042;51.948;7.628;2023-01-23T02:41:33;23.30;;;15.27;;
3369;SDS011;42042;51.948;7.628;2023-01-23T02:44:03;34.22;;;18.50;;
3369;SDS011;42042;51.948;7.628;2023-01-23T02:46:31;29.38;;;17.25;;
3369;SDS011;42042;51.948;7.628;2023-01-23T02:48:58;29.65;;;17.23;;
3369;SDS011;42042;51.948;7.628;2023-01-23T02:51:25;23.83;;;15.70;;
3369;SDS011;42042;51.948;7.628;2023-01-23T02:53:52;24.42;;;16.10;;
3369;SDS011;42042;51.948;7.628;2023-01-23T02:56:19;27.35;;;16.75;;
3369;SDS011;42042;51.948;7.628;2023-01-23T02:58:47;25.42;;;15.50;;
3369;SDS011;42042;51.948;7.628;2023-01-23T03:01:33;27.17;;;16.10;;
3369;SDS011;42042;51.948;7.628;2023-01-23T03:04:00;25.45;;;16.23;;
3369;SDS011;42042;51.948;7.628;2023-01-23T03:06:29;26.65;;;16.75;;
3369;SDS011;42042;51.948;7.628;2023-01-23T03:09:00;29.50;;;16.15;;
3369;SDS011;42042;51.948;7.628;2023-01-23T03:11:28;23.92;;;14.13;;
3369;SDS011;42042;51.948;7.628;2023-01-23T03:13:55;27.23;;;15.73;;
3369;SDS011;42042;51.948;7.628;2023-01-23T03:16:22;26.85;;;15.98;;
3369;SDS011;42042;51.948;7.628;2023-01-23T03:18:51;22.42;;;13.95;;
3369;SDS011;42042;51.948;7.628;2023-01-23T03:21:18;24.58;;;15.25;;
3369;SDS011;42042;51.948;7.628;2023-01-23T03:23:45;21.83;;;15.00;;
3369;SDS011;42042;51.948;7.628;2023-01-23T03:26:12;28.73;;;15.13;;
3369;SDS011;42042;51.948;7.628;2023-01-23T03:28:39;25.60;;;14.80;;
3369;SDS011;42042;51.948;7.628;2023-01-23T03:31:24;25.92;;;16.73;;
3369;SDS011;42042;51.948;7.628;2023-01-23T03:33:53;28.85;;;14.45;;
3369;SDS011;42042;51.948;7.628;2023-01-23T03:36:20;24.08;;;14.05;;
3369;SDS011;42042;51.948;7.628;2023-01-23T03:38:47;28.10;;;16.05;;
3369;SDS011;42042;51.948;7.628;2023-01-23T03:41:32;29.95;;;16.95;;
3369;SDS011;42042;51.948;7.628;2023-01-23T03:43:59;27.15;;;14.95;;
3369;SDS011;42042;51.948;7.628;2023-01-23T03:46:26;19.90;;;12.93;;
3369;SDS011;42042;51.948;7.628;2023-01-23T03:48:54;26.65;;;15.25;;
3369;SDS011;42042;51.948;7.628;2023-01-23T03:51:22;24.77;;;14.00;;
3369;SDS011;42042;51.948;7.628;2023-01-23T03:53:49;22.58;;;13.70;;
3369;SDS011;42042;51.948;7.628;2023-01-23T03:56:16;23.85;;;15.07;;
3369;SDS011;42042;51.948;7.628;2023-01-23T03:58:43;22.00;;;12.93;;
3369;SDS011;42042;51.948;7.628;2023-01-23T04:01:10;22.25;;;13.32;;
3369;SDS011;42042;51.948;7.628;2023-01-23T04:03:38;20.40;;;12.38;;
3369;SDS011;42042;51.948;7.628;2023-01-23T04:06:06;21.13;;;12.63;;
3369;SDS011;42042;51.948;7.628;2023-01-23T04:08:33;21.52;;;13.85;;
3369;SDS011;42042;51.948;7.628;2023-01-23T04:11:01;21.15;;;13.05;;
3369;SDS011;42042;51.948;7.628;2023-01-23T04:13:28;21.60;;;14.23;;
3369;SDS011;42042;51.948;7.628;2023-01-23T04:15:56;19.98;;;12.68;;
3369;SDS011;42042;51.948;7.628;2023-01-23T04:18:23;17.23;;;11.30;;
3369;SDS011;42042;51.948;7.628;2023-01-23T04:20:50;19.25;;;12.70;;
3369;SDS011;42042;51.948;7.628;2023-01-23T04:23:19;18.13;;;13.30;;
3369;SDS011;42042;51.948;7.628;2023-01-23T04:25:46;20.50;;;13.13;;
3369;SDS011;42042;51.948;7.628;2023-01-23T04:28:14;20.55;;;12.40;;
3369;SDS011;42042;51.948;7.628;2023-01-23T04:30:41;21.85;;;13.25;;
3369;SDS011;42042;51.948;7.628;2023-01-23T04:33:08;18.88;;;12.25;;
3369;SDS011;42042;51.948;7.628;2023-01-23T04:35:35;16.50;;;12.00;;
3369;SDS011;42042;51.948;7.628;2023-01-23T04:38:02;16.65;;;11.32;;
3369;SDS011;42042;51.948;7.628;2023-01-23T04:40:31;17.88;;;13.02;;
3369;SDS011;42042;51.948;7.628;2023-01-23T04:42:58;15.23;;;10.45;;
3369;SDS011;42042;51.948;7.628;2023-01-23T04:45:25;18.08;;;10.32;;
3369;SDS011;42042;51.948;7.628;2023-01-23T04:47:52;15.18;;;11.23;;
3369;SDS011;42042;51.948;7.628;2023-01-23T04:50:19;20.50;;;12.48;;
3369;SDS011;42042;51.948;7.628;2023-01-23T04:52:47;17.50;;;12.07;;
3369;SDS011;42042;51.948;7.628;2023-01-23T04:55:14;18.63;;;12.85;;
3369;SDS011;42042;51.948;7.628;2023-01-23T04:57:42;19.20;;;12.57;;
3369;SDS011;42042;51.948;7.628;2023-01-23T05:00:10;19.08;;;12.43;;
3369;SDS011;42042;51.948;7.628;2023-01-23T05:02:38;14.82;;;11.27;;
3369;SDS011;42042;51.948;7.628;2023-01-23T05:05:06;19.98;;;13.27;;
3369;SDS011;42042;51.948;7.628;2023-01-23T05:07:33;18.98;;;11.55;;
3369;SDS011;42042;51.948;7.628;2023-01-23T05:10:00;21.52;;;12.70;;
3369;SDS011;42042;51.948;7.628;2023-01-23T05:12:27;16.65;;;11.38;;
3369;SDS011;42042;51.948;7.628;2023-01-23T05:14:56;18.95;;;12.48;;
3369;SDS011;42042;51.948;7.628;2023-01-23T05:17:23;18.38;;;12.55;;
3369;SDS011;42042;51.948;7.628;2023-01-23T05:19:50;18.35;;;11.70;;
3369;SDS011;42042;51.948;7.628;2023-01-23T05:22:18;19.98;;;11.48;;
3369;SDS011;42042;51.948;7.628;2023-01-23T05:24:45;18.27;;;12.07;;
3369;SDS011;42042;51.948;7.628;2023-01-23T05:27:12;18.77;;;12.90;;
3369;SDS011;42042;51.948;7.628;2023-01-23T05:29:39;21.65;;;13.27;;
3369;SDS011;42042;51.948;7.628;2023-01-23T05:32:08;19.58;;;13.68;;
3369;SDS011;42042;51.948;7.628;2023-01-23T05:34:35;20.77;;;14.25;;
3369;SDS011;42042;51.948;7.628;2023-01-23T05:37:02;23.08;;;12.65;;
3369;SDS011;42042;51.948;7.628;2023-01-23T05:39:30;20.55;;;12.18;;
3369;SDS011;42042;51.948;7.628;2023-01-23T05:41:57;22.50;;;12.70;;
3369;SDS011;42042;51.948;7.628;2023-01-23T05:44:25;19.17;;;12.55;;
3369;SDS011;42042;51.948;7.628;2023-01-23T05:46:52;18.10;;;11.88;;
3369;SDS011;42042;51.948;7.628;2023-01-23T05:49:21;22.25;;;14.00;;
3369;SDS011;42042;51.948;7.628;2023-01-23T05:51:48;23.27;;;13.75;;
3369;SDS011;42042;51.948;7.628;2023-01-23T05:54:15;23.67;;;13.48;;
3369;SDS011;42042;51.948;7.628;2023-01-23T05:56:42;21.05;;;13.40;;
3369;SDS011;42042;51.948;7.628;2023-01-23T05:59:10;19.40;;;13.40;;
3369;SDS011;42042;51.948;7.628;2023-01-23T06:01:37;23.00;;;13.20;;
3369;SDS011;42042;51.948;7.628;2023-01-23T06:04:04;18.48;;;12.77;;
3369;SDS011;42042;51.948;7.628;2023-01-23T06:06:33;16.63;;;11.73;;
3369;SDS011;42042;51.948;7.628;2023-01-23T06:09:00;24.88;;;14.70;;
3369;SDS011;42042;51.948;7.628;2023-01-23T06:11:27;22.02;;;12.82;;
3369;SDS011;42042;51.948;7.628;2023-01-23T06:13:54;19.77;;;11.93;;
3369;SDS011;42042;51.948;7.628;2023-01-23T06:16:21;22.52;;;14.50;;
3369;SDS011;42042;51.948;7.628;2023-01-23T06:18:49;20.17;;;13.10;;
3369;SDS011;42042;51.948;7.628;2023-01-23T06:21:16;21.05;;;13.65;;
3369;SDS011;42042;51.948;7.628;2023-01-23T06:23:44;20.60;;;13.35;;
3369;SDS011;42042;51.948;7.628;2023-01-23T06:26:12;19.35;;;13.73;;
3369;SDS011;42042;51.948;7.628;2023-01-23T06:28:39;18.85;;;12.98;;
3369;SDS011;42042;51.948;7.628;2023-01-23T06:31:06;23.13;;;14.45;;
3369;SDS011;42042;51.948;7.628;2023-01-23T06:33:34;20.85;;;14.00;;
3369;SDS011;42042;51.948;7.628;2023-01-23T06:36:03;20.13;;;13.40;;
3369;SDS011;42042;51.948;7.628;2023-01-23T06:38:31;17.20;;;11.95;;
3369;SDS011;42042;51.948;7.628;2023-01-23T06:40:59;22.70;;;14.43;;
3369;SDS011;42042;51.948;7.628;2023-01-23T06:43:27;21.15;;;12.90;;
3369;SDS011;42042;51.948;7.628;2023-01-23T06:45:54;17.30;;;13.35;;
3369;SDS011;42042;51.948;7.628;2023-01-23T06:48:21;21.60;;;14.07;;
3369;SDS011;42042;51.948;7.628;2023-01-23T06:50:48;25.25;;;14.85;;
3369;SDS011;42042;51.948;7.628;2023-01-23T06:53:16;18.90;;;12.82;;
3369;SDS011;42042;51.948;7.628;2023-01-23T06:55:44;19.63;;;12.68;;
3369;SDS011;42042;51.948;7.628;2023-01-23T06:58:13;20.80;;;14.52;;
3369;SDS011;42042;51.948;7.628;2023-01-23T07:00:40;21.08;;;13.88;;
3369;SDS011;42042;51.948;7.628;2023-01-23T07:03:09;21.58;;;13.20;;
3369;SDS011;42042;51.948;7.628;2023-01-23T07:05:36;20.88;;;13.60;;
3369;SDS011;42042;51.948;7.628;2023-01-23T07:08:05;19.45;;;12.93;;
3369;SDS011;42042;51.948;7.628;2023-01-23T07:10:32;19.02;;;13.25;;
3369;SDS011;42042;51.948;7.628;2023-01-23T07:13:01;20.65;;;13.32;;
3369;SDS011;42042;51.948;7.628;2023-01-23T07:15:30;17.73;;;13.18;;
3369;SDS011;42042;51.948;7.628;2023-01-23T07:17:57;18.77;;;12.98;;
3369;SDS011;42042;51.948;7.628;2023-01-23T07:20:25;19.58;;;13.43;;
3369;SDS011;42042;51.948;7.628;2023-01-23T07:22:52;16.30;;;13.00;;
3369;SDS011;42042;51.948;7.628;2023-01-23T07:25:19;19.77;;;13.55;;
3369;SDS011;42042;51.948;7.628;2023-01-23T07:27:47;18.95;;;13.10;;
3369;SDS011;42042;51.948;7.628;2023-01-23T07:30:15;20.05;;;13.32;;
3369;SDS011;42042;51.948;7.628;2023-01-23T07:32:43;23.02;;;13.88;;
3369;SDS011;42042;51.948;7.628;2023-01-23T07:35:10;19.70;;;13.63;;
3369;SDS011;42042;51.948;7.628;2023-01-23T07:37:38;21.25;;;14.50;;
3369;SDS011;42042;51.948;7.628;2023-01-23T07:40:05;17.50;;;12.52;;
3369;SDS011;42042;51.948;7.628;2023-01-23T07:42:32;20.92;;;14.23;;
3369;SDS011;42042;51.948;7.628;2023-01-23T07:44:59;27.70;;;14.18;;
3369;SDS011;42042;51.948;7.628;2023-01-23T07:47:27;19.98;;;14.15;;
3369;SDS011;42042;51.948;7.628;2023-01-23T07:49:55;20.98;;;13.23;;
3369;SDS011;42042;51.948;7.628;2023-01-23T07:52:22;19.13;;;13.23;;
3369;SDS011;42042;51.948;7.628;2023-01-23T07:54:50;23.45;;;14.40;;
3369;SDS011;42042;51.948;7.628;2023-01-23T07:57:17;18.15;;;12.35;;
3369;SDS011;42042;51.948;7.628;2023-01-23T07:59:45;20.15;;;13.75;;
3369;SDS011;42042;51.948;7.628;2023-01-23T08:02:13;21.30;;;15.48;;
3369;SDS011;42042;51.948;7.628;2023-01-23T08:04:40;20.33;;;14.60;;
3369;SDS011;42042;51.948;7.628;2023-01-23T08:07:08;19.65;;;14.73;;
3369;SDS011;42042;51.948;7.628;2023-01-23T08:09:35;20.80;;;13.88;;
3369;SDS011;42042;51.948;7.628;2023-01-23T08:12:04;20.30;;;14.65;;
3369;SDS011;42042;51.948;7.628;2023-01-23T08:14:31;24.05;;;15.20;;
3369;SDS011;42042;51.948;7.628;2023-01-23T08:16:59;25.83;;;14.40;;
3369;SDS011;42042;51.948;7.628;2023-01-23T08:19:26;21.88;;;14.50;;
3369;SDS011;42042;51.948;7.628;2023-01-23T08:21:53;26.20;;;16.33;;
3369;SDS011;42042;51.948;7.628;2023-01-23T08:24:22;24.95;;;17.48;;
3369;SDS011;42042;51.948;7.628;2023-01-23T08:26:49;22.73;;;14.98;;
3369;SDS011;42042;51.948;7.628;2023-01-23T08:29:16;22.08;;;13.80;;
3369;SDS011;42042;51.948;7.628;2023-01-23T08:31:43;25.27;;;15.70;;
3369;SDS011;42042;51.948;7.628;2023-01-23T08:34:11;23.90;;;14.80;;
3369;SDS011;42042;51.948;7.628;2023-01-23T08:36:38;23.52;;;15.30;;
3369;SDS011;42042;51.948;7.628;2023-01-23T08:39:05;25.63;;;15.23;;
3369;SDS011;42042;51.948;7.628;2023-01-23T08:41:34;23.50;;;14.68;;
3369;SDS011;42042;51.948;7.628;2023-01-23T08:44:01;20.80;;;14.00;;
3369;SDS011;42042;51.948;7.628;2023-01-23T08:46:28;26.73;;;13.68;;
3369;SDS011;42042;51.948;7.628;2023-01-23T08:48:56;24.10;;;15.23;;
3369;SDS011;42042;51.948;7.628;2023-01-23T08:51:23;22.85;;;14.70;;
3369;SDS011;42042;51.948;7.628;2023-01-23T08:53:51;26.25;;;16.60;;
3369;SDS011;42042;51.948;7.628;2023-01-23T08:56:19;26.92;;;15.43;;
3369;SDS011;42042;51.948;7.628;2023-01-23T08:58:48;22.02;;;13.98;;
3369;SDS011;42042;51.948;7.628;2023-01-23T09:01:17;28.88;;;17.65;;
3369;SDS011;42042;51.948;7.628;2023-01-23T09:03:45;26.83;;;16.75;;
3369;SDS011;42042;51.948;7.628;2023-01-23T09:06:12;24.70;;;15.10;;
3369;SDS011;42042;51.948;7.628;2023-01-23T09:08:40;25.00;;;14.43;;
3369;SDS011;42042;51.948;7.628;2023-01-23T09:11:08;20.65;;;15.73;;
3369;SDS011;42042;51.948;7.628;2023-01-23T09:13:36;22.73;;;14.00;;
3369;SDS011;42042;51.948;7.628;2023-01-23T09:16:05;24.25;;;15.57;;
3369;SDS011;42042;51.948;7.628;2023-01-23T09:18:33;21.35;;;14.43;;
3369;SDS011;42042;51.948;7.628;2023-01-23T09:21:04;25.52;;;15.70;;
3369;SDS011;42042;51.948;7.628;2023-01-23T09:23:31;22.15;;;15.27;;
3369;SDS011;42042;51.948;7.628;2023-01-23T09:26:01;21.88;;;14.10;;
3369;SDS011;42042;51.948;7.628;2023-01-23T09:28:28;23.73;;;14.50;;
3369;SDS011;42042;51.948;7.628;2023-01-23T09:30:55;21.73;;;14.00;;
3369;SDS011;42042;51.948;7.628;2023-01-23T09:33:24;19.50;;;14.15;;
3369;SDS011;42042;51.948;7.628;2023-01-23T09:35:51;19.05;;;14.30;;
3369;SDS011;42042;51.948;7.628;2023-01-23T09:38:18;19.83;;;14.25;;
3369;SDS011;42042;51.948;7.628;2023-01-23T09:40:47;25.98;;;15.18;;
3369;SDS011;42042;51.948;7.628;2023-01-23T09:43:15;25.55;;;13.93;;
3369;SDS011;42042;51.948;7.628;2023-01-23T09:45:46;25.63;;;15.88;;
3369;SDS011;42042;51.948;7.628;2023-01-23T09:48:18;23.23;;;15.55;;
3369;SDS011;42042;51.948;7.628;2023-01-23T09:50:52;26.15;;;15.50;;
3369;SDS011;42042;51.948;7.628;2023-01-23T09:53:21;19.98;;;13.73;;
3369;SDS011;42042;51.948;7.628;2023-01-23T09:55:49;22.85;;;15.00;;
3369;SDS011;42042;51.948;7.628;2023-01-23T09:58:21;21.80;;;14.63;;
3369;SDS011;42042;51.948;7.628;2023-01-23T10:00:51;20.77;;;14.23;;
3369;SDS011;42042;51.948;7.628;2023-01-23T10:03:18;22.00;;;15.95;;
3369;SDS011;42042;51.948;7.628;2023-01-23T10:05:49;22.65;;;14.98;;
3369;SDS011;42042;51.948;7.628;2023-01-23T10:08:26;18.92;;;13.95;;
3369;SDS011;42042;51.948;7.628;2023-01-23T10:10:56;20.50;;;13.10;;
3369;SDS011;42042;51.948;7.628;2023-01-23T10:13:32;18.65;;;13.73;;
3369;SDS011;42042;51.948;7.628;2023-01-23T10:16:09;21.20;;;13.25;;
3369;SDS011;42042;51.948;7.628;2023-01-23T10:18:42;20.20;;;13.07;;
3369;SDS011;42042;51.948;7.628;2023-01-23T10:21:12;24.02;;;15.40;;
3369;SDS011;42042;51.948;7.628;2023-01-23T10:23:49;18.52;;;12.57;;
3369;SDS011;42042;51.948;7.628;2023-01-23T10:26:22;17.70;;;13.13;;
3369;SDS011;42042;51.948;7.628;2023-01-23T10:28:50;18.15;;;13.02;;
3369;SDS011;42042;51.948;7.628;2023-01-23T10:31:22;24.25;;;13.90;;
3369;SDS011;42042;51.948;7.628;2023-01-23T10:33:53;18.73;;;13.57;;
3369;SDS011;42042;51.948;7.628;2023-01-23T10:36:22;23.30;;;14.93;;
3369;SDS011;42042;51.948;7.628;2023-01-23T10:38:55;19.15;;;13.35;;
3369;SDS011;42042;51.948;7.628;2023-01-23T10:41:23;22.15;;;14.45;;
3369;SDS011;42042;51.948;7.628;2023-01-23T10:43:51;22.17;;;13.88;;
3369;SDS011;42042;51.948;7.628;2023-01-23T10:46:19;18.45;;;12.48;;
3369;SDS011;42042;51.948;7.628;2023-01-23T10:48:48;28.27;;;13.20;;
3369;SDS011;42042;51.948;7.628;2023-01-23T10:54:13;22.48;;;14.77;;
3369;SDS011;42042;51.948;7.628;2023-01-23T10:56:51;23.85;;;13.32;;
3369;SDS011;42042;51.948;7.628;2023-01-23T10:59:23;22.23;;;14.73;;
3369;SDS011;42042;51.948;7.628;2023-01-23T11:01:58;21.75;;;14.18;;
3369;SDS011;42042;51.948;7.628;2023-01-23T11:04:27;20.85;;;13.55;;
3369;SDS011;42042;51.948;7.628;2023-01-23T11:07:02;26.10;;;16.42;;
3369;SDS011;42042;51.948;7.628;2023-01-23T11:09:30;21.75;;;15.05;;
3369;SDS011;42042;51.948;7.628;2023-01-23T11:11:58;24.90;;;16.98;;
3369;SDS011;42042;51.948;7.628;2023-01-23T11:14:26;23.92;;;14.55;;
3369;SDS011;42042;51.948;7.628;2023-01-23T11:17:00;21.58;;;14.15;;
3369;SDS011;42042;51.948;7.628;2023-01-23T11:19:28;22.25;;;14.10;;
3369;SDS011;42042;51.948;7.628;2023-01-23T11:21:58;22.58;;;13.40;;
3369;SDS011;42042;51.948;7.628;2023-01-23T11:24:30;23.13;;;15.63;;
3369;SDS011;42042;51.948;7.628;2023-01-23T11:26:59;18.42;;;13.27;;
3369;SDS011;42042;51.948;7.628;2023-01-23T11:29:28;31.23;;;16.83;;
3369;SDS011;42042;51.948;7.628;2023-01-23T11:31:57;21.13;;;15.35;;
3369;SDS011;42042;51.948;7.628;2023-01-23T11:34:25;23.02;;;14.30;;
3369;SDS011;42042;51.948;7.628;2023-01-23T11:36:54;18.92;;;13.02;;
3369;SDS011;42042;51.948;7.628;2023-01-23T11:39:32;22.08;;;14.20;;
3369;SDS011;42042;51.948;7.628;2023-01-23T11:42:01;29.95;;;15.70;;
3369;SDS011;42042;51.948;7.628;2023-01-23T11:44:29;17.63;;;12.95;;
3369;SDS011;42042;51.948;7.628;2023-01-23T11:47:05;20.33;;;13.25;;
3369;SDS011;42042;51.948;7.628;2023-01-23T11:49:43;19.98;;;13.95;;
3369;SDS011;42042;51.948;7.628;2023-01-23T11:52:18;20.98;;;13.90;;
3369;SDS011;42042;51.948;7.628;2023-01-23T11:54:56;21.17;;;13.40;;
3369;SDS011;42042;51.948;7.628;2023-01-23T11:57:30;21.33;;;13.02;;
3369;SDS011;42042;51.948;7.628;2023-01-23T12:00:02;17.67;;;13.23;;
3369;SDS011;42042;51.948;7.628;2023-01-23T12:02:40;21.55;;;14.70;;
3369;SDS011;42042;51.948;7.628;2023-01-23T12:05:26;22.52;;;13.70;;
3369;SDS011;42042;51.948;7.628;2023-01-23T12:08:02;25.00;;;14.30;;
3369;SDS011;42042;51.948;7.628;2023-01-23T12:10:34;25.08;;;14.48;;
3369;SDS011;42042;51.948;7.628;2023-01-23T12:13:14;24.73;;;15.20;;
3369;SDS011;42042;51.948;7.628;2023-01-23T12:15:45;26.60;;;15.02;;
3369;SDS011;42042;51.948;7.628;2023-01-23T12:18:25;26.75;;;17.35;;
3369;SDS011;42042;51.948;7.628;2023-01-23T12:20:57;26.17;;;17.02;;
3369;SDS011;42042;51.948;7.628;2023-01-23T12:23:33;32.33;;;17.77;;
3369;SDS011;42042;51.948;7.628;2023-01-23T12:26:06;30.48;;;18.50;;
3369;SDS011;42042;51.948;7.628;2023-01-23T12:28:51;30.83;;;18.17;;
3369;SDS011;42042;51.948;7.628;2023-01-23T12:31:27;28.30;;;18.50;;
3369;SDS011;42042;51.948;7.628;2023-01-23T12:34:01;28.40;;;18.38;;
3369;SDS011;42042;51.948;7.628;2023-01-23T12:36:39;24.08;;;16.52;;
3369;SDS011;42042;51.948;7.628;2023-01-23T12:39:15;34.80;;;17.27;;
3369;SDS011;42042;51.948;7.628;2023-01-23T12:41:48;27.17;;;16.10;;
3369;SDS011;42042;51.948;7.628;2023-01-23T12:44:20;27.67;;;17.83;;
3369;SDS011;42042;51.948;7.628;2023-01-23T12:46:50;25.13;;;16.08;;
3369;SDS011;42042;51.948;7.628;2023-01-23T12:49:23;30.77;;;18.45;;
3369;SDS011;42042;51.948;7.628;2023-01-23T12:51:52;30.50;;;17.83;;
3369;SDS011;42042;51.948;7.628;2023-01-23T12:54:23;25.92;;;16.85;;
3369;SDS011;42042;51.948;7.628;2023-01-23T12:56:52;26.17;;;17.08;;
3369;SDS011;42042;51.948;7.628;2023-01-23T12:59:23;32.80;;;18.25;;
3369;SDS011;42042;51.948;7.628;2023-01-23T13:01:54;23.67;;;15.35;;
3369;SDS011;42042;51.948;7.628;2023-01-23T13:04:28;29.42;;;16.85;;
3369;SDS011;42042;51.948;7.628;2023-01-23T13:09:37;36.38;;;19.23;;
3369;SDS011;42042;51.948;7.628;2023-01-23T13:12:08;24.55;;;15.98;;
3369;SDS011;42042;51.948;7.628;2023-01-23T13:14:44;25.98;;;17.02;;
3369;SDS011;42042;51.948;7.628;2023-01-23T13:17:28;34.28;;;18.25;;
3369;SDS011;42042;51.948;7.628;2023-01-23T13:20:06;24.67;;;17.67;;
3369;SDS011;42042;51.948;7.628;2023-01-23T13:25:43;23.42;;;15.85;;
3369;SDS011;42042;51.948;7.628;2023-01-23T13:28:29;25.60;;;17.42;;
3369;SDS011;42042;51.948;7.628;2023-01-23T13:31:00;31.02;;;17.50;;
3369;SDS011;42042;51.948;7.628;2023-01-23T13:41:49;26.38;;;16.98;;
3369;SDS011;42042;51.948;7.628;2023-01-23T13:44:17;27.48;;;18.48;;
3369;SDS011;42042;51.948;7.628;2023-01-23T13:49:35;26.67;;;17.75;;
3369;SDS011;42042;51.948;7.628;2023-01-23T13:52:15;29.83;;;16.83;;
3369;SDS011;42042;51.948;7.628;2023-01-23T13:54:57;29.30;;;17.40;;
3369;SDS011;42042;51.948;7.628;2023-01-23T13:57:41;31.38;;;16.80;;
3369;SDS011;42042;51.948;7.628;2023-01-23T14:00:15;20.13;;;15.45;;
3369;SDS011;42042;51.948;7.628;2023-01-23T14:02:45;26.00;;;16.75;;
3369;SDS011;42042;51.948;7.628;2023-01-23T14:05:56;30.60;;;17.80;;
3369;SDS011;42042;51.948;7.628;2023-01-23T14:08:28;30.90;;;18.50;;
3369;SDS011;42042;51.948;7.628;2023-01-23T14:10:55;24.55;;;17.23;;
3369;SDS011;42042;51.948;7.628;2023-01-23T14:13:22;26.55;;;17.20;;
3369;SDS011;42042;51.948;7.628;2023-01-23T14:15:50;26.05;;;16.70;;
3369;SDS011;42042;51.948;7.628;2023-01-23T14:18:36;27.98;;;16.70;;
3369;SDS011;42042;51.948;7.628;2023-01-23T14:21:05;27.80;;;16.25;;
3369;SDS011;42042;51.948;7.628;2023-01-23T14:23:40;26.63;;;18.30;;
3369;SDS011;42042;51.948;7.628;2023-01-23T14:26:08;26.20;;;16.75;;
3369;SDS011;42042;51.948;7.628;2023-01-23T14:28:36;38.55;;;19.70;;
3369;SDS011;42042;51.948;7.628;2023-01-23T14:31:04;26.83;;;16.92;;
3369;SDS011;42042;51.948;7.628;2023-01-23T14:33:41;25.33;;;17.67;;
3369;SDS011;42042;51.948;7.628;2023-01-23T14:36:17;31.00;;;19.75;;
3369;SDS011;42042;51.948;7.628;2023-01-23T14:38:45;33.05;;;18.02;;
3369;SDS011;42042;51.948;7.628;2023-01-23T14:41:14;30.88;;;17.92;;
3369;SDS011;42042;51.948;7.628;2023-01-23T14:43:41;28.60;;;17.73;;
3369;SDS011;42042;51.948;7.628;2023-01-23T14:46:13;29.67;;;19.13;;
3369;SDS011;42042;51.948;7.628;2023-01-23T14:48:41;34.45;;;20.17;;
3369;SDS011;42042;51.948;7.628;2023-01-23T14:51:13;31.23;;;17.20;;
3369;SDS011;42042;51.948;7.628;2023-01-23T14:53:44;29.35;;;18.85;;
3369;SDS011;42042;51.948;7.628;2023-01-23T14:56:15;24.30;;;16.70;;
3369;SDS011;42042;51.948;7.628;2023-01-23T14:58:43;32.33;;;17.60;;
3369;SDS011;42042;51.948;7.628;2023-01-23T15:01:11;25.27;;;17.73;;
3369;SDS011;42042;51.948;7.628;2023-01-23T15:03:40;30.05;;;17.73;;
3369;SDS011;42042;51.948;7.628;2023-01-23T15:06:12;33.20;;;17.95;;